sensor_id;sensor_type;location;lat;lon;timestamp;temperature;humidity
16283;DHT22;8249;48.708;9.030;2023-10-19T00:02:08;11.90;99.90
16283;DHT22;8249;48.708;9.030;2023-10-19T00:04:34;11.90;99.90
16283;DHT22;8249;48.708;9.030;2023-10-19T00:07:03;11.90;99.90
16283;DHT22;8249;48.708;9.030;2023-10-19T00:09:31;12.10;99.90
16283;DHT22;8249;48.708;9.030;2023-10-19T00:12:03;12.20;99.90
16283;DHT22;8249;48.708;9.030;2023-10-19T00:14:31;12.40;99.90
16283;DHT22;8249;48.708;9.030;2023-10-19T00:16:58;12.60;99.90
16283;DHT22;8249;48.708;9.030;2023-10-19T00:19:26;12.70;99.90
16283;DHT22;8249;48.708;9.030;2023-10-19T00:21:54;12.80;99.90
16283;DHT22;8249;48.708;9.030;2023-10-19T00:24:22;12.80;99.90
16283;DHT22;8249;48.708;9.030;2023-10-19T00:26:49;12.80;99.90
16283;DHT22;8249;48.708;9.030;2023-10-19T00:29:19;12.80;99.90
16283;DHT22;8249;48.708;9.030;2023-10-19T00:31:56;12.80;99.90
16283;DHT22;8249;48.708;9.030;2023-10-19T00:34:25;12.80;99.90
16283;DHT22;8249;48.708;9.030;2023-10-19T00:36:52;12.80;99.90
16283;DHT22;8249;48.708;9.030;2023-10-19T00:39:21;12.80;99.90
16283;DHT22;8249;48.708;9.030;2023-10-19T00:41:49;12.80;99.90
16283;DHT22;8249;48.708;9.030;2023-10-19T00:44:17;12.90;99.90
16283;DHT22;8249;48.708;9.030;2023-10-19T00:46:48;12.90;99.90
16283;DHT22;8249;48.708;9.030;2023-10-19T00:49:26;12.90;99.90
16283;DHT22;8249;48.708;9.030;2023-10-19T00:51:55;12.90;99.90
16283;DHT22;8249;48.708;9.030;2023-10-19T00:54:32;12.90;99.90
16283;DHT22;8249;48.708;9.030;2023-10-19T00:57:02;13.00;99.90
16283;DHT22;8249;48.708;9.030;2023-10-19T00:59:33;13.00;99.90
16283;DHT22;8249;48.708;9.030;2023-10-19T01:02:04;13.20;99.90
16283;DHT22;8249;48.708;9.030;2023-10-19T01:04:44;13.20;99.90
16283;DHT22;8249;48.708;9.030;2023-10-19T01:07:16;13.30;99.90
16283;DHT22;8249;48.708;9.030;2023-10-19T01:09:49;13.30;99.90
16283;DHT22;8249;48.708;9.030;2023-10-19T01:12:19;13.30;99.90
16283;DHT22;8249;48.708;9.030;2023-10-19T01:15:06;13.30;99.90
16283;DHT22;8249;48.708;9.030;2023-10-19T01:17:34;13.30;99.90
16283;DHT22;8249;48.708;9.030;2023-10-19T01:20:07;13.30;99.90
16283;DHT22;8249;48.708;9.030;2023-10-19T01:22:49;13.30;99.90
16283;DHT22;8249;48.708;9.030;2023-10-19T01:25:19;13.30;99.90
16283;DHT22;8249;48.708;9.030;2023-10-19T01:27:53;13.30;99.90
16283;DHT22;8249;48.708;9.030;2023-10-19T01:30:23;13.20;99.90
16283;DHT22;8249;48.708;9.030;2023-10-19T01:32:53;13.20;99.90
16283;DHT22;8249;48.708;9.030;2023-10-19T01:35:20;13.20;99.90
16283;DHT22;8249;48.708;9.030;2023-10-19T01:37:48;13.20;99.90
16283;DHT22;8249;48.708;9.030;2023-10-19T01:40:14;13.20;99.90
16283;DHT22;8249;48.708;9.030;2023-10-19T01:42:47;13.10;99.90
16283;DHT22;8249;48.708;9.030;2023-10-19T01:45:13;13.10;99.90
16283;DHT22;8249;48.708;9.030;2023-10-19T01:47:41;13.10;99.90
16283;DHT22;8249;48.708;9.030;2023-10-19T01:50:09;13.00;99.90
16283;DHT22;8249;48.708;9.030;2023-10-19T01:52:45;13.00;99.90
16283;DHT22;8249;48.708;9.030;2023-10-19T01:55:14;13.00;99.90
16283;DHT22;8249;48.708;9.030;2023-10-19T01:57:46;13.00;99.90
16283;DHT22;8249;48.708;9.030;2023-10-19T02:00:14;13.00;99.90
16283;DHT22;8249;48.708;9.030;2023-10-19T02:02:48;12.90;99.90
16283;DHT22;8249;48.708;9.030;2023-10-19T02:05:16;12.90;99.90
16283;DHT22;8249;48.708;9.030;2023-10-19T02:07:44;12.90;99.90
16283;DHT22;8249;48.708;9.030;2023-10-19T02:10:13;12.90;99.90
16283;DHT22;8249;48.708;9.030;2023-10-19T02:12:41;12.80;99.90
16283;DHT22;8249;48.708;9.030;2023-10-19T02:15:09;12.80;99.90
16283;DHT22;8249;48.708;9.030;2023-10-19T02:17:35;12.70;99.90
16283;DHT22;8249;48.708;9.030;2023-10-19T02:20:03;12.60;99.90
16283;DHT22;8249;48.708;9.030;2023-10-19T02:22:43;12.60;99.90
16283;DHT22;8249;48.708;9.030;2023-10-19T02:25:10;12.50;99.90
16283;DHT22;8249;48.708;9.030;2023-10-19T02:27:38;12.40;99.90
16283;DHT22;8249;48.708;9.030;2023-10-19T02:30:06;12.30;99.90
16283;DHT22;8249;48.708;9.030;2023-10-19T02:32:32;12.20;99.90
16283;DHT22;8249;48.708;9.030;2023-10-19T02:34:59;12.20;99.90
16283;DHT22;8249;48.708;9.030;2023-10-19T02:37:27;12.10;99.90
16283;DHT22;8249;48.708;9.030;2023-10-19T02:39:54;12.00;99.90
16283;DHT22;8249;48.708;9.030;2023-10-19T02:42:21;12.00;99.90
16283;DHT22;8249;48.708;9.030;2023-10-19T02:44:49;11.90;99.90
16283;DHT22;8249;48.708;9.030;2023-10-19T02:47:16;11.90;99.90
16283;DHT22;8249;48.708;9.030;2023-10-19T02:49:43;11.80;99.90
16283;DHT22;8249;48.708;9.030;2023-10-19T02:52:10;11.70;99.90
16283;DHT22;8249;48.708;9.030;2023-10-19T02:54:39;11.60;99.90
16283;DHT22;8249;48.708;9.030;2023-10-19T02:57:06;11.60;99.90
16283;DHT22;8249;48.708;9.030;2023-10-19T02:59:32;11.50;99.90
16283;DHT22;8249;48.708;9.030;2023-10-19T03:02:01;11.50;99.90
16283;DHT22;8249;48.708;9.030;2023-10-19T03:04:32;11.40;99.90
16283;DHT22;8249;48.708;9.030;2023-10-19T03:07:01;11.40;99.90
16283;DHT22;8249;48.708;9.030;2023-10-19T03:09:28;11.40;99.90
16283;DHT22;8249;48.708;9.030;2023-10-19T03:11:56;11.40;99.90
16283;DHT22;8249;48.708;9.030;2023-10-19T03:14:25;11.30;99.90
16283;DHT22;8249;48.708;9.030;2023-10-19T03:16:51;11.30;99.90
16283;DHT22;8249;48.708;9.030;2023-10-19T03:19:22;11.30;99.90
16283;DHT22;8249;48.708;9.030;2023-10-19T03:21:48;11.20;99.90
16283;DHT22;8249;48.708;9.030;2023-10-19T03:24:16;11.10;99.90
16283;DHT22;8249;48.708;9.030;2023-10-19T03:26:49;11.10;99.90
16283;DHT22;8249;48.708;9.030;2023-10-19T03:29:16;11.00;99.90
16283;DHT22;8249;48.708;9.030;2023-10-19T03:31:48;11.00;99.90
16283;DHT22;8249;48.708;9.030;2023-10-19T03:34:17;11.00;99.90
16283;DHT22;8249;48.708;9.030;2023-10-19T03:36:46;10.90;99.90
16283;DHT22;8249;48.708;9.030;2023-10-19T03:39:13;10.90;99.90
16283;DHT22;8249;48.708;9.030;2023-10-19T03:41:45;10.80;99.90
16283;DHT22;8249;48.708;9.030;2023-10-19T03:44:12;10.80;99.90
16283;DHT22;8249;48.708;9.030;2023-10-19T03:46:44;10.80;99.90
16283;DHT22;8249;48.708;9.030;2023-10-19T03:49:22;10.70;99.90
16283;DHT22;8249;48.708;9.030;2023-10-19T03:51:53;10.70;99.90
16283;DHT22;8249;48.708;9.030;2023-10-19T03:54:27;10.70;99.90
16283;DHT22;8249;48.708;9.030;2023-10-19T03:56:54;10.70;99.90
16283;DHT22;8249;48.708;9.030;2023-10-19T03:59:23;10.60;99.90
16283;DHT22;8249;48.708;9.030;2023-10-19T04:01:55;10.60;99.90
16283;DHT22;8249;48.708;9.030;2023-10-19T04:04:25;10.70;99.90
16283;DHT22;8249;48.708;9.030;2023-10-19T04:06:54;10.70;99.90
16283;DHT22;8249;48.708;9.030;2023-10-19T04:09:24;10.70;99.90
16283;DHT22;8249;48.708;9.030;2023-10-19T04:11:55;10.70;99.90
16283;DHT22;8249;48.708;9.030;2023-10-19T04:14:22;10.70;99.90
16283;DHT22;8249;48.708;9.030;2023-10-19T04:16:49;10.70;99.90
16283;DHT22;8249;48.708;9.030;2023-10-19T04:19:16;10.80;99.90
16283;DHT22;8249;48.708;9.030;2023-10-19T04:21:43;10.80;99.90
16283;DHT22;8249;48.708;9.030;2023-10-19T04:24:13;10.80;99.90
16283;DHT22;8249;48.708;9.030;2023-10-19T04:26:42;10.80;99.90
16283;DHT22;8249;48.708;9.030;2023-10-19T04:29:09;10.80;99.90
16283;DHT22;8249;48.708;9.030;2023-10-19T04:31:37;10.70;99.90
16283;DHT22;8249;48.708;9.030;2023-10-19T04:34:08;10.70;99.90
16283;DHT22;8249;48.708;9.030;2023-10-19T04:36:35;10.70;99.90
16283;DHT22;8249;48.708;9.030;2023-10-19T04:39:02;10.70;99.90
16283;DHT22;8249;48.708;9.030;2023-10-19T04:41:31;10.60;99.90
16283;DHT22;8249;48.708;9.030;2023-10-19T04:43:58;10.60;99.90
16283;DHT22;8249;48.708;9.030;2023-10-19T04:46:26;10.60;99.90
16283;DHT22;8249;48.708;9.030;2023-10-19T04:48:54;10.60;99.90
16283;DHT22;8249;48.708;9.030;2023-10-19T04:51:21;10.60;99.90
16283;DHT22;8249;48.708;9.030;2023-10-19T04:53:48;10.60;99.90
16283;DHT22;8249;48.708;9.030;2023-10-19T04:56:15;10.60;99.90
16283;DHT22;8249;48.708;9.030;2023-10-19T04:58:43;10.70;99.90
16283;DHT22;8249;48.708;9.030;2023-10-19T05:01:10;10.70;99.90
16283;DHT22;8249;48.708;9.030;2023-10-19T05:03:38;10.70;99.90
16283;DHT22;8249;48.708;9.030;2023-10-19T05:06:05;10.70;99.90
16283;DHT22;8249;48.708;9.030;2023-10-19T05:08:31;10.70;99.90
16283;DHT22;8249;48.708;9.030;2023-10-19T05:10:59;10.70;99.90
16283;DHT22;8249;48.708;9.030;2023-10-19T05:13:26;10.70;99.90
16283;DHT22;8249;48.708;9.030;2023-10-19T05:15:55;10.70;99.90
16283;DHT22;8249;48.708;9.030;2023-10-19T05:18:24;10.70;99.90
16283;DHT22;8249;48.708;9.030;2023-10-19T05:20:52;10.70;99.90
16283;DHT22;8249;48.708;9.030;2023-10-19T05:23:22;10.70;99.90
16283;DHT22;8249;48.708;9.030;2023-10-19T05:25:50;10.70;99.90
16283;DHT22;8249;48.708;9.030;2023-10-19T05:28:17;10.70;99.90
16283;DHT22;8249;48.708;9.030;2023-10-19T05:30:45;10.70;99.90
16283;DHT22;8249;48.708;9.030;2023-10-19T05:33:14;10.80;99.90
16283;DHT22;8249;48.708;9.030;2023-10-19T05:35:41;10.70;99.90
16283;DHT22;8249;48.708;9.030;2023-10-19T05:38:09;10.70;99.90
16283;DHT22;8249;48.708;9.030;2023-10-19T05:40:35;10.80;99.90
16283;DHT22;8249;48.708;9.030;2023-10-19T05:43:05;10.90;99.90
16283;DHT22;8249;48.708;9.030;2023-10-19T05:45:33;10.80;99.90
16283;DHT22;8249;48.708;9.030;2023-10-19T05:48:02;10.80;99.90
16283;DHT22;8249;48.708;9.030;2023-10-19T05:50:33;10.80;99.90
16283;DHT22;8249;48.708;9.030;2023-10-19T05:53:00;10.90;99.90
16283;DHT22;8249;48.708;9.030;2023-10-19T05:55:28;10.90;99.90
16283;DHT22;8249;48.708;9.030;2023-10-19T05:57:55;10.90;99.90
16283;DHT22;8249;48.708;9.030;2023-10-19T06:00:22;10.90;99.90
16283;DHT22;8249;48.708;9.030;2023-10-19T06:02:52;10.70;99.90
16283;DHT22;8249;48.708;9.030;2023-10-19T06:05:19;10.90;99.90
16283;DHT22;8249;48.708;9.030;2023-10-19T06:07:48;10.90;99.90
16283;DHT22;8249;48.708;9.030;2023-10-19T06:10:17;11.00;99.90
16283;DHT22;8249;48.708;9.030;2023-10-19T06:12:44;11.00;99.90
16283;DHT22;8249;48.708;9.030;2023-10-19T06:15:12;11.10;99.90
16283;DHT22;8249;48.708;9.030;2023-10-19T06:17:39;11.10;99.90
16283;DHT22;8249;48.708;9.030;2023-10-19T06:20:08;11.10;99.90
16283;DHT22;8249;48.708;9.030;2023-10-19T06:22:47;11.10;99.90
16283;DHT22;8249;48.708;9.030;2023-10-19T06:25:16;11.20;99.90
16283;DHT22;8249;48.708;9.030;2023-10-19T06:27:44;11.20;99.90
16283;DHT22;8249;48.708;9.030;2023-10-19T06:30:12;11.30;99.90
16283;DHT22;8249;48.708;9.030;2023-10-19T06:32:47;11.30;99.90
16283;DHT22;8249;48.708;9.030;2023-10-19T06:35:15;11.40;99.90
16283;DHT22;8249;48.708;9.030;2023-10-19T06:37:42;11.50;99.90
16283;DHT22;8249;48.708;9.030;2023-10-19T06:40:12;11.50;99.90
16283;DHT22;8249;48.708;9.030;2023-10-19T06:42:40;11.60;99.90
16283;DHT22;8249;48.708;9.030;2023-10-19T06:45:08;11.60;99.90
16283;DHT22;8249;48.708;9.030;2023-10-19T06:47:39;11.60;99.90
16283;DHT22;8249;48.708;9.030;2023-10-19T06:50:07;11.70;99.90
16283;DHT22;8249;48.708;9.030;2023-10-19T06:52:36;11.80;99.90
16283;DHT22;8249;48.708;9.030;2023-10-19T06:55:03;11.90;99.90
16283;DHT22;8249;48.708;9.030;2023-10-19T06:57:32;11.90;99.90
16283;DHT22;8249;48.708;9.030;2023-10-19T06:59:59;12.00;99.90
16283;DHT22;8249;48.708;9.030;2023-10-19T07:02:36;12.00;99.90
16283;DHT22;8249;48.708;9.030;2023-10-19T07:05:03;12.00;99.90
16283;DHT22;8249;48.708;9.030;2023-10-19T07:07:31;12.10;99.90
16283;DHT22;8249;48.708;9.030;2023-10-19T07:09:58;12.10;99.90
16283;DHT22;8249;48.708;9.030;2023-10-19T07:12:25;12.10;99.90
16283;DHT22;8249;48.708;9.030;2023-10-19T07:14:53;12.20;99.90
16283;DHT22;8249;48.708;9.030;2023-10-19T07:17:20;12.20;99.90
16283;DHT22;8249;48.708;9.030;2023-10-19T07:19:46;12.30;99.90
16283;DHT22;8249;48.708;9.030;2023-10-19T07:22:14;12.40;99.90
16283;DHT22;8249;48.708;9.030;2023-10-19T07:24:42;12.40;99.90
16283;DHT22;8249;48.708;9.030;2023-10-19T07:27:09;12.50;99.90
16283;DHT22;8249;48.708;9.030;2023-10-19T07:29:43;12.50;99.90
16283;DHT22;8249;48.708;9.030;2023-10-19T07:32:12;12.60;99.90
16283;DHT22;8249;48.708;9.030;2023-10-19T07:34:39;12.80;99.90
16283;DHT22;8249;48.708;9.030;2023-10-19T07:37:06;12.90;99.90
16283;DHT22;8249;48.708;9.030;2023-10-19T07:39:33;13.00;99.90
16283;DHT22;8249;48.708;9.030;2023-10-19T07:42:01;13.10;99.90
16283;DHT22;8249;48.708;9.030;2023-10-19T07:44:32;13.20;99.90
16283;DHT22;8249;48.708;9.030;2023-10-19T07:46:59;13.30;99.90
16283;DHT22;8249;48.708;9.030;2023-10-19T07:49:27;13.50;99.90
16283;DHT22;8249;48.708;9.030;2023-10-19T07:51:54;13.60;99.90
16283;DHT22;8249;48.708;9.030;2023-10-19T07:54:23;13.70;99.90
16283;DHT22;8249;48.708;9.030;2023-10-19T07:56:50;13.80;99.90
16283;DHT22;8249;48.708;9.030;2023-10-19T07:59:16;13.90;99.90
16283;DHT22;8249;48.708;9.030;2023-10-19T08:01:44;14.00;99.90
16283;DHT22;8249;48.708;9.030;2023-10-19T08:04:11;14.00;99.90
16283;DHT22;8249;48.708;9.030;2023-10-19T08:06:40;14.20;99.90
16283;DHT22;8249;48.708;9.030;2023-10-19T08:09:06;14.40;99.90
16283;DHT22;8249;48.708;9.030;2023-10-19T08:11:37;14.70;99.90
16283;DHT22;8249;48.708;9.030;2023-10-19T08:14:03;15.10;99.90
16283;DHT22;8249;48.708;9.030;2023-10-19T08:16:30;15.50;99.90
16283;DHT22;8249;48.708;9.030;2023-10-19T08:18:57;16.00;99.90
16283;DHT22;8249;48.708;9.030;2023-10-19T08:21:24;16.20;99.90
16283;DHT22;8249;48.708;9.030;2023-10-19T08:23:55;16.30;99.90
16283;DHT22;8249;48.708;9.030;2023-10-19T08:26:22;16.60;99.90
16283;DHT22;8249;48.708;9.030;2023-10-19T08:28:49;17.00;99.90
16283;DHT22;8249;48.708;9.030;2023-10-19T08:31:17;17.30;99.90
16283;DHT22;8249;48.708;9.030;2023-10-19T08:33:44;17.60;99.90
16283;DHT22;8249;48.708;9.030;2023-10-19T08:36:18;17.80;99.90
16283;DHT22;8249;48.708;9.030;2023-10-19T08:38:46;18.00;99.90
16283;DHT22;8249;48.708;9.030;2023-10-19T08:41:15;18.00;99.90
16283;DHT22;8249;48.708;9.030;2023-10-19T08:43:42;18.20;99.90
16283;DHT22;8249;48.708;9.030;2023-10-19T08:46:10;18.10;99.90
16283;DHT22;8249;48.708;9.030;2023-10-19T08:48:38;18.30;99.90
16283;DHT22;8249;48.708;9.030;2023-10-19T08:51:09;18.50;99.90
16283;DHT22;8249;48.708;9.030;2023-10-19T08:53:37;18.70;99.90
16283;DHT22;8249;48.708;9.030;2023-10-19T08:56:07;18.60;99.90
16283;DHT22;8249;48.708;9.030;2023-10-19T08:58:35;18.60;99.90
16283;DHT22;8249;48.708;9.030;2023-10-19T09:01:02;18.60;99.90
16283;DHT22;8249;48.708;9.030;2023-10-19T09:03:35;18.40;99.90
16283;DHT22;8249;48.708;9.030;2023-10-19T09:06:04;18.20;99.90
16283;DHT22;8249;48.708;9.030;2023-10-19T09:08:32;18.00;99.90
16283;DHT22;8249;48.708;9.030;2023-10-19T09:11:09;18.00;99.90
16283;DHT22;8249;48.708;9.030;2023-10-19T09:13:46;17.90;99.90
16283;DHT22;8249;48.708;9.030;2023-10-19T09:16:14;17.60;99.90
16283;DHT22;8249;48.708;9.030;2023-10-19T09:18:41;17.60;99.90
16283;DHT22;8249;48.708;9.030;2023-10-19T09:21:08;17.60;99.90
16283;DHT22;8249;48.708;9.030;2023-10-19T09:23:38;17.70;99.90
16283;DHT22;8249;48.708;9.030;2023-10-19T09:26:05;17.80;99.90
16283;DHT22;8249;48.708;9.030;2023-10-19T09:28:34;17.90;99.90
16283;DHT22;8249;48.708;9.030;2023-10-19T09:31:04;18.00;99.90
16283;DHT22;8249;48.708;9.030;2023-10-19T09:33:32;18.10;99.90
16283;DHT22;8249;48.708;9.030;2023-10-19T09:36:01;18.10;99.90
16283;DHT22;8249;48.708;9.030;2023-10-19T09:38:29;18.30;99.90
16283;DHT22;8249;48.708;9.030;2023-10-19T09:40:57;18.50;99.90
16283;DHT22;8249;48.708;9.030;2023-10-19T09:43:33;18.70;99.90
16283;DHT22;8249;48.708;9.030;2023-10-19T09:46:05;18.60;99.90
16283;DHT22;8249;48.708;9.030;2023-10-19T09:48:35;18.40;99.90
16283;DHT22;8249;48.708;9.030;2023-10-19T09:51:07;18.20;99.90
16283;DHT22;8249;48.708;9.030;2023-10-19T09:53:36;18.00;99.90
16283;DHT22;8249;48.708;9.030;2023-10-19T09:56:06;17.80;99.90
16283;DHT22;8249;48.708;9.030;2023-10-19T09:58:36;17.60;99.90
16283;DHT22;8249;48.708;9.030;2023-10-19T10:01:06;17.30;99.90
16283;DHT22;8249;48.708;9.030;2023-10-19T10:03:45;17.10;99.90
16283;DHT22;8249;48.708;9.030;2023-10-19T10:06:12;17.00;99.90
16283;DHT22;8249;48.708;9.030;2023-10-19T10:08:41;17.00;99.90
16283;DHT22;8249;48.708;9.030;2023-10-19T10:11:17;16.90;99.90
16283;DHT22;8249;48.708;9.030;2023-10-19T10:13:45;16.90;99.90
16283;DHT22;8249;48.708;9.030;2023-10-19T10:16:19;17.00;99.90
16283;DHT22;8249;48.708;9.030;2023-10-19T10:18:47;17.00;99.90
16283;DHT22;8249;48.708;9.030;2023-10-19T10:21:17;17.20;99.90
16283;DHT22;8249;48.708;9.030;2023-10-19T10:23:48;17.30;99.90
16283;DHT22;8249;48.708;9.030;2023-10-19T10:26:17;17.30;99.90
16283;DHT22;8249;48.708;9.030;2023-10-19T10:28:48;17.30;99.90
16283;DHT22;8249;48.708;9.030;2023-10-19T10:31:21;17.20;99.90
16283;DHT22;8249;48.708;9.030;2023-10-19T10:33:49;17.20;99.90
16283;DHT22;8249;48.708;9.030;2023-10-19T10:36:17;17.20;99.90
16283;DHT22;8249;48.708;9.030;2023-10-19T10:38:45;17.20;99.90
16283;DHT22;8249;48.708;9.030;2023-10-19T10:41:19;17.10;99.90
16283;DHT22;8249;48.708;9.030;2023-10-19T10:43:51;17.10;99.90
16283;DHT22;8249;48.708;9.030;2023-10-19T10:46:21;17.10;99.90
16283;DHT22;8249;48.708;9.030;2023-10-19T10:48:49;17.10;99.90
16283;DHT22;8249;48.708;9.030;2023-10-19T10:51:21;17.00;99.90
16283;DHT22;8249;48.708;9.030;2023-10-19T10:53:49;17.00;99.90
16283;DHT22;8249;48.708;9.030;2023-10-19T10:56:17;16.90;99.90
16283;DHT22;8249;48.708;9.030;2023-10-19T10:58:45;16.90;99.90
16283;DHT22;8249;48.708;9.030;2023-10-19T11:01:12;16.70;99.90
16283;DHT22;8249;48.708;9.030;2023-10-19T11:03:41;16.70;99.90
16283;DHT22;8249;48.708;9.030;2023-10-19T11:06:09;16.70;99.90
16283;DHT22;8249;48.708;9.030;2023-10-19T11:08:38;16.60;99.90
16283;DHT22;8249;48.708;9.030;2023-10-19T11:11:07;16.60;99.90
16283;DHT22;8249;48.708;9.030;2023-10-19T11:13:37;16.50;99.90
16283;DHT22;8249;48.708;9.030;2023-10-19T11:16:05;16.40;99.90
16283;DHT22;8249;48.708;9.030;2023-10-19T11:18:36;16.30;99.90
16283;DHT22;8249;48.708;9.030;2023-10-19T11:21:08;16.20;99.90
16283;DHT22;8249;48.708;9.030;2023-10-19T11:23:43;16.10;99.90
16283;DHT22;8249;48.708;9.030;2023-10-19T11:26:10;16.10;99.90
16283;DHT22;8249;48.708;9.030;2023-10-19T11:28:38;16.00;99.90
16283;DHT22;8249;48.708;9.030;2023-10-19T11:31:15;16.00;99.90
16283;DHT22;8249;48.708;9.030;2023-10-19T11:33:44;16.00;99.90
16283;DHT22;8249;48.708;9.030;2023-10-19T11:36:13;16.00;99.90
16283;DHT22;8249;48.708;9.030;2023-10-19T11:38:40;15.90;99.90
16283;DHT22;8249;48.708;9.030;2023-10-19T11:41:08;16.00;99.90
16283;DHT22;8249;48.708;9.030;2023-10-19T11:43:35;16.00;99.90
16283;DHT22;8249;48.708;9.030;2023-10-19T11:46:02;16.00;99.90
16283;DHT22;8249;48.708;9.030;2023-10-19T11:48:31;16.00;99.90
16283;DHT22;8249;48.708;9.030;2023-10-19T11:50:59;16.00;99.90
16283;DHT22;8249;48.708;9.030;2023-10-19T11:53:29;16.00;99.90
16283;DHT22;8249;48.708;9.030;2023-10-19T11:55:59;16.10;99.90
16283;DHT22;8249;48.708;9.030;2023-10-19T11:58:27;16.10;99.90
16283;DHT22;8249;48.708;9.030;2023-10-19T12:00:54;16.10;99.90
16283;DHT22;8249;48.708;9.030;2023-10-19T12:03:21;16.10;99.90
16283;DHT22;8249;48.708;9.030;2023-10-19T12:05:48;16.00;99.90
16283;DHT22;8249;48.708;9.030;2023-10-19T12:08:15;16.00;99.90
16283;DHT22;8249;48.708;9.030;2023-10-19T12:10:44;15.90;99.90
16283;DHT22;8249;48.708;9.030;2023-10-19T12:13:11;15.90;99.90
16283;DHT22;8249;48.708;9.030;2023-10-19T12:15:38;15.90;99.90
16283;DHT22;8249;48.708;9.030;2023-10-19T12:18:05;15.90;99.90
16283;DHT22;8249;48.708;9.030;2023-10-19T12:20:33;15.90;99.90
16283;DHT22;8249;48.708;9.030;2023-10-19T12:23:01;15.90;99.90
16283;DHT22;8249;48.708;9.030;2023-10-19T12:25:31;15.90;99.90
16283;DHT22;8249;48.708;9.030;2023-10-19T12:28:00;15.90;99.90
16283;DHT22;8249;48.708;9.030;2023-10-19T12:30:30;15.80;99.90
16283;DHT22;8249;48.708;9.030;2023-10-19T12:33:02;15.80;99.90
16283;DHT22;8249;48.708;9.030;2023-10-19T12:35:33;15.80;99.90
16283;DHT22;8249;48.708;9.030;2023-10-19T12:38:10;15.70;99.90
16283;DHT22;8249;48.708;9.030;2023-10-19T12:40:42;15.70;99.90
16283;DHT22;8249;48.708;9.030;2023-10-19T12:43:11;15.70;99.90
16283;DHT22;8249;48.708;9.030;2023-10-19T12:45:38;15.70;99.90
16283;DHT22;8249;48.708;9.030;2023-10-19T12:48:06;15.60;99.90
16283;DHT22;8249;48.708;9.030;2023-10-19T12:50:34;15.70;99.90
16283;DHT22;8249;48.708;9.030;2023-10-19T12:53:02;15.70;99.90
16283;DHT22;8249;48.708;9.030;2023-10-19T12:55:29;15.70;99.90
16283;DHT22;8249;48.708;9.030;2023-10-19T12:57:56;15.70;99.90
16283;DHT22;8249;48.708;9.030;2023-10-19T13:00:26;15.70;99.90
16283;DHT22;8249;48.708;9.030;2023-10-19T13:02:55;15.70;99.90
16283;DHT22;8249;48.708;9.030;2023-10-19T13:05:27;15.70;99.90
16283;DHT22;8249;48.708;9.030;2023-10-19T13:07:54;15.70;99.90
16283;DHT22;8249;48.708;9.030;2023-10-19T13:10:27;15.70;99.90
16283;DHT22;8249;48.708;9.030;2023-10-19T13:12:59;15.80;99.90
16283;DHT22;8249;48.708;9.030;2023-10-19T13:15:31;15.80;99.90
16283;DHT22;8249;48.708;9.030;2023-10-19T13:17:58;15.90;99.90
16283;DHT22;8249;48.708;9.030;2023-10-19T13:20:25;15.90;99.90
16283;DHT22;8249;48.708;9.030;2023-10-19T13:22:54;16.00;99.90
16283;DHT22;8249;48.708;9.030;2023-10-19T13:25:22;16.00;99.90
16283;DHT22;8249;48.708;9.030;2023-10-19T13:28:06;16.00;99.90
16283;DHT22;8249;48.708;9.030;2023-10-19T13:30:40;16.00;99.90
16283;DHT22;8249;48.708;9.030;2023-10-19T13:33:07;16.00;99.90
16283;DHT22;8249;48.708;9.030;2023-10-19T13:35:36;16.00;99.90
16283;DHT22;8249;48.708;9.030;2023-10-19T13:38:04;15.90;99.90
16283;DHT22;8249;48.708;9.030;2023-10-19T13:40:31;15.90;99.90
16283;DHT22;8249;48.708;9.030;2023-10-19T13:42:59;15.90;99.90
16283;DHT22;8249;48.708;9.030;2023-10-19T13:45:28;15.90;99.90
16283;DHT22;8249;48.708;9.030;2023-10-19T13:47:59;15.90;99.90
16283;DHT22;8249;48.708;9.030;2023-10-19T13:50:26;15.90;99.90
16283;DHT22;8249;48.708;9.030;2023-10-19T13:52:53;15.90;99.90
16283;DHT22;8249;48.708;9.030;2023-10-19T13:55:22;16.00;99.90
16283;DHT22;8249;48.708;9.030;2023-10-19T13:57:50;16.00;99.90
16283;DHT22;8249;48.708;9.030;2023-10-19T14:00:18;16.00;99.90
16283;DHT22;8249;48.708;9.030;2023-10-19T14:02:51;15.90;99.90
16283;DHT22;8249;48.708;9.030;2023-10-19T14:05:20;16.00;99.90
16283;DHT22;8249;48.708;9.030;2023-10-19T14:07:50;16.00;99.90
16283;DHT22;8249;48.708;9.030;2023-10-19T14:10:18;16.00;99.90
16283;DHT22;8249;48.708;9.030;2023-10-19T14:12:48;16.00;99.90
16283;DHT22;8249;48.708;9.030;2023-10-19T14:15:16;15.90;99.90
16283;DHT22;8249;48.708;9.030;2023-10-19T14:17:46;15.90;99.90
16283;DHT22;8249;48.708;9.030;2023-10-19T14:20:15;15.80;99.90
16283;DHT22;8249;48.708;9.030;2023-10-19T14:22:48;15.80;99.90
16283;DHT22;8249;48.708;9.030;2023-10-19T14:25:45;15.80;99.90
16283;DHT22;8249;48.708;9.030;2023-10-19T14:28:14;15.80;99.90
16283;DHT22;8249;48.708;9.030;2023-10-19T14:30:42;15.70;99.90
16283;DHT22;8249;48.708;9.030;2023-10-19T14:33:11;15.70;99.90
16283;DHT22;8249;48.708;9.030;2023-10-19T14:35:40;15.70;99.90
16283;DHT22;8249;48.708;9.030;2023-10-19T14:38:10;15.60;99.90
16283;DHT22;8249;48.708;9.030;2023-10-19T14:41:03;15.60;99.90
16283;DHT22;8249;48.708;9.030;2023-10-19T14:43:30;15.60;99.90
16283;DHT22;8249;48.708;9.030;2023-10-19T14:46:04;15.60;99.90
16283;DHT22;8249;48.708;9.030;2023-10-19T14:48:33;15.60;99.90
16283;DHT22;8249;48.708;9.030;2023-10-19T14:51:07;15.60;99.90
16283;DHT22;8249;48.708;9.030;2023-10-19T14:54:15;15.60;99.90
16283;DHT22;8249;48.708;9.030;2023-10-19T14:56:48;15.60;99.90
16283;DHT22;8249;48.708;9.030;2023-10-19T14:59:55;15.60;99.90
16283;DHT22;8249;48.708;9.030;2023-10-19T15:02:35;15.60;99.90
16283;DHT22;8249;48.708;9.030;2023-10-19T15:05:06;15.60;99.90
16283;DHT22;8249;48.708;9.030;2023-10-19T15:07:34;15.60;99.90
16283;DHT22;8249;48.708;9.030;2023-10-19T15:10:12;15.60;99.90
16283;DHT22;8249;48.708;9.030;2023-10-19T15:12:39;15.60;99.90
16283;DHT22;8249;48.708;9.030;2023-10-19T15:15:10;15.60;99.90
16283;DHT22;8249;48.708;9.030;2023-10-19T15:17:57;15.60;99.90
16283;DHT22;8249;48.708;9.030;2023-10-19T15:20:27;15.60;99.90
16283;DHT22;8249;48.708;9.030;2023-10-19T15:24:14;15.60;99.90
16283;DHT22;8249;48.708;9.030;2023-10-19T15:26:44;15.50;99.90
16283;DHT22;8249;48.708;9.030;2023-10-19T15:29:16;15.50;99.90
16283;DHT22;8249;48.708;9.030;2023-10-19T15:31:43;15.50;99.90
16283;DHT22;8249;48.708;9.030;2023-10-19T15:34:10;15.50;99.90
16283;DHT22;8249;48.708;9.030;2023-10-19T15:36:39;15.50;99.90
16283;DHT22;8249;48.708;9.030;2023-10-19T15:39:10;15.50;99.90
16283;DHT22;8249;48.708;9.030;2023-10-19T15:41:49;15.40;99.90
16283;DHT22;8249;48.708;9.030;2023-10-19T15:44:20;15.40;99.90
16283;DHT22;8249;48.708;9.030;2023-10-19T15:46:49;15.40;99.90
16283;DHT22;8249;48.708;9.030;2023-10-19T15:49:28;15.30;99.90
16283;DHT22;8249;48.708;9.030;2023-10-19T15:51:58;15.30;99.90
16283;DHT22;8249;48.708;9.030;2023-10-19T15:54:25;15.20;99.90
16283;DHT22;8249;48.708;9.030;2023-10-19T15:56:54;15.20;99.90
16283;DHT22;8249;48.708;9.030;2023-10-19T15:59:21;15.10;99.90
16283;DHT22;8249;48.708;9.030;2023-10-19T16:01:48;15.20;99.90